sensor_id;sensor_type;location;lat;lon;timestamp;pressure;altitude;pressure_sealevel;temperature;humidity
39887;BME280;25559;44.738;20.980;2022-08-25T00:00:47;100690.16;;;22.13;100.00
39887;BME280;25559;44.738;20.980;2022-08-25T00:03:12;100682.25;;;22.13;100.00
39887;BME280;25559;44.738;20.980;2022-08-25T00:05:39;100684.97;;;22.12;100.00
39887;BME280;25559;44.738;20.980;2022-08-25T00:08:05;100685.06;;;22.10;100.00
39887;BME280;25559;44.738;20.980;2022-08-25T00:10:33;100683.50;;;22.08;100.00
39887;BME280;25559;44.738;20.980;2022-08-25T00:12:59;100675.88;;;22.03;100.00
39887;BME280;25559;44.738;20.980;2022-08-25T00:15:26;100668.19;;;21.98;100.00
39887;BME280;25559;44.738;20.980;2022-08-25T00:17:53;100669.91;;;21.99;100.00
39887;BME280;25559;44.738;20.980;2022-08-25T00:20:19;100661.25;;;21.97;100.00
39887;BME280;25559;44.738;20.980;2022-08-25T00:22:45;100658.81;;;21.94;100.00
39887;BME280;25559;44.738;20.980;2022-08-25T00:25:11;100649.38;;;21.90;100.00
39887;BME280;25559;44.738;20.980;2022-08-25T00:27:37;100648.44;;;21.91;100.00
39887;BME280;25559;44.738;20.980;2022-08-25T00:30:03;100641.38;;;21.92;100.00
39887;BME280;25559;44.738;20.980;2022-08-25T00:32:30;100637.97;;;21.90;100.00
39887;BME280;25559;44.738;20.980;2022-08-25T00:34:56;100640.34;;;21.94;100.00
39887;BME280;25559;44.738;20.980;2022-08-25T00:37:22;100635.25;;;21.91;100.00
39887;BME280;25559;44.738;20.980;2022-08-25T00:39:48;100629.28;;;21.88;100.00
39887;BME280;25559;44.738;20.980;2022-08-25T00:42:14;100628.66;;;21.84;100.00
39887;BME280;25559;44.738;20.980;2022-08-25T00:44:40;100626.09;;;21.82;100.00
39887;BME280;25559;44.738;20.980;2022-08-25T00:47:08;100625.28;;;21.82;100.00
39887;BME280;25559;44.738;20.980;2022-08-25T00:49:51;100623.47;;;21.82;100.00
39887;BME280;25559;44.738;20.980;2022-08-25T00:52:28;100615.66;;;21.81;100.00
39887;BME280;25559;44.738;20.980;2022-08-25T00:55:08;100613.94;;;21.80;100.00
39887;BME280;25559;44.738;20.980;2022-08-25T00:57:39;100609.44;;;21.82;100.00
39887;BME280;25559;44.738;20.980;2022-08-25T01:00:23;100611.31;;;21.80;100.00
39887;BME280;25559;44.738;20.980;2022-08-25T01:02:50;100611.50;;;21.77;100.00
39887;BME280;25559;44.738;20.980;2022-08-25T01:05:16;100611.59;;;21.75;100.00
39887;BME280;25559;44.738;20.980;2022-08-25T01:07:44;100610.00;;;21.73;100.00
39887;BME280;25559;44.738;20.980;2022-08-25T01:10:11;100610.94;;;21.72;100.00
39887;BME280;25559;44.738;20.980;2022-08-25T01:12:38;100611.13;;;21.69;100.00
39887;BME280;25559;44.738;20.980;2022-08-25T01:15:05;100608.59;;;21.67;100.00
39887;BME280;25559;44.738;20.980;2022-08-25T01:17:45;100615.53;;;21.68;100.00
39887;BME280;25559;44.738;20.980;2022-08-25T01:20:12;100619.88;;;21.69;100.00
39887;BME280;25559;44.738;20.980;2022-08-25T01:22:39;100623.63;;;21.65;100.00
39887;BME280;25559;44.738;20.980;2022-08-25T01:28:00;100622.91;;;21.63;100.00
39887;BME280;25559;44.738;20.980;2022-08-25T01:30:26;100631.81;;;21.60;100.00
39887;BME280;25559;44.738;20.980;2022-08-25T01:32:52;100634.56;;;21.59;100.00
39887;BME280;25559;44.738;20.980;2022-08-25T01:35:18;100631.19;;;21.57;100.00
39887;BME280;25559;44.738;20.980;2022-08-25T01:37:44;100635.34;;;21.61;100.00
39887;BME280;25559;44.738;20.980;2022-08-25T01:40:10;100630.25;;;21.58;100.00
39887;BME280;25559;44.738;20.980;2022-08-25T01:45:13;100625.81;;;21.58;100.00
39887;BME280;25559;44.738;20.980;2022-08-25T01:47:38;100634.66;;;21.57;100.00
39887;BME280;25559;44.738;20.980;2022-08-25T01:50:05;100632.09;;;21.56;100.00
39887;BME280;25559;44.738;20.980;2022-08-25T01:52:36;100634.84;;;21.54;100.00
39887;BME280;25559;44.738;20.980;2022-08-25T01:55:03;100631.38;;;21.54;100.00
39887;BME280;25559;44.738;20.980;2022-08-25T01:57:29;100634.19;;;21.51;100.00
39887;BME280;25559;44.738;20.980;2022-08-25T01:59:57;100634.09;;;21.52;100.00
39887;BME280;25559;44.738;20.980;2022-08-25T02:02:23;100630.72;;;21.50;100.00
39887;BME280;25559;44.738;20.980;2022-08-25T02:04:48;100636.72;;;21.52;100.00
39887;BME280;25559;44.738;20.980;2022-08-25T02:07:14;100624.56;;;21.50;100.00
39887;BME280;25559;44.738;20.980;2022-08-25T02:09:39;100630.53;;;21.53;100.00
39887;BME280;25559;44.738;20.980;2022-08-25T02:12:06;100636.63;;;21.54;100.00
39887;BME280;25559;44.738;20.980;2022-08-25T02:14:34;100631.38;;;21.54;100.00
39887;BME280;25559;44.738;20.980;2022-08-25T02:17:01;100631.38;;;21.54;100.00
39887;BME280;25559;44.738;20.980;2022-08-25T02:19:27;100626.19;;;21.52;100.00
39887;BME280;25559;44.738;20.980;2022-08-25T02:21:55;100624.47;;;21.51;100.00
39887;BME280;25559;44.738;20.980;2022-08-25T02:24:21;100622.63;;;21.53;100.00
39887;BME280;25559;44.738;20.980;2022-08-25T02:26:47;100625.16;;;21.55;100.00
39887;BME280;25559;44.738;20.980;2022-08-25T02:29:13;100619.97;;;21.53;100.00
39887;BME280;25559;44.738;20.980;2022-08-25T02:31:39;100621.84;;;21.51;100.00
39887;BME280;25559;44.738;20.980;2022-08-25T02:34:06;100624.38;;;21.53;100.00
39887;BME280;25559;44.738;20.980;2022-08-25T02:36:32;100632.28;;;21.53;100.00
39887;BME280;25559;44.738;20.980;2022-08-25T02:38:58;100634.84;;;21.54;100.00
39887;BME280;25559;44.738;20.980;2022-08-25T02:41:25;100642.56;;;21.57;100.00
39887;BME280;25559;44.738;20.980;2022-08-25T02:43:51;100643.44;;;21.58;100.00
39887;BME280;25559;44.738;20.980;2022-08-25T02:46:18;100643.25;;;21.61;100.00
39887;BME280;25559;44.738;20.980;2022-08-25T02:48:45;100648.44;;;21.62;100.00
39887;BME280;25559;44.738;20.980;2022-08-25T02:51:12;100647.38;;;21.65;100.00
39887;BME280;25559;44.738;20.980;2022-08-25T02:53:39;100650.59;;;21.70;100.00
39887;BME280;25559;44.738;20.980;2022-08-25T02:56:07;100648.06;;;21.69;100.00
39887;BME280;25559;44.738;20.980;2022-08-25T02:58:34;100648.69;;;21.72;100.00
39887;BME280;25559;44.738;20.980;2022-08-25T03:01:00;100660.88;;;21.75;100.00
39887;BME280;25559;44.738;20.980;2022-08-25T03:03:26;100661.78;;;21.74;100.00
39887;BME280;25559;44.738;20.980;2022-08-25T03:05:51;100654.66;;;21.76;100.00
39887;BME280;25559;44.738;20.980;2022-08-25T03:08:19;100659.06;;;21.75;100.00
39887;BME280;25559;44.738;20.980;2022-08-25T03:10:45;100649.19;;;21.79;100.00
39887;BME280;25559;44.738;20.980;2022-08-25T03:13:11;100646.38;;;21.82;100.00
39887;BME280;25559;44.738;20.980;2022-08-25T03:15:37;100638.56;;;21.80;100.00
39887;BME280;25559;44.738;20.980;2022-08-25T03:18:03;100647.22;;;21.82;100.00
39887;BME280;25559;44.738;20.980;2022-08-25T03:20:30;100644.84;;;21.78;100.00
39887;BME280;25559;44.738;20.980;2022-08-25T03:22:55;100645.88;;;21.75;100.00
39887;BME280;25559;44.738;20.980;2022-08-25T03:25:21;100652.22;;;21.73;100.00
39887;BME280;25559;44.738;20.980;2022-08-25T03:28:06;100643.72;;;21.68;100.00
39887;BME280;25559;44.738;20.980;2022-08-25T03:30:32;100656.81;;;21.69;100.00
39887;BME280;25559;44.738;20.980;2022-08-25T03:32:57;100648.97;;;21.68;100.00
39887;BME280;25559;44.738;20.980;2022-08-25T03:35:23;100653.31;;;21.69;100.00
39887;BME280;25559;44.738;20.980;2022-08-25T03:37:49;100651.63;;;21.68;100.00
39887;BME280;25559;44.738;20.980;2022-08-25T03:40:15;100648.06;;;21.69;100.00
39887;BME280;25559;44.738;20.980;2022-08-25T03:42:45;100656.91;;;21.68;100.00
39887;BME280;25559;44.738;20.980;2022-08-25T03:45:12;100643.91;;;21.64;100.00
39887;BME280;25559;44.738;20.980;2022-08-25T03:47:38;100649.25;;;21.63;100.00
39887;BME280;25559;44.738;20.980;2022-08-25T03:50:09;100641.53;;;21.60;100.00
39887;BME280;25559;44.738;20.980;2022-08-25T03:52:35;100638.25;;;21.56;100.00
39887;BME280;25559;44.738;20.980;2022-08-25T03:55:03;100640.78;;;21.58;100.00
39887;BME280;25559;44.738;20.980;2022-08-25T03:57:29;100631.19;;;21.57;100.00
39887;BME280;25559;44.738;20.980;2022-08-25T03:59:55;100634.94;;;21.53;100.00
39887;BME280;25559;44.738;20.980;2022-08-25T04:02:20;100637.66;;;21.51;100.00
39887;BME280;25559;44.738;20.980;2022-08-25T04:04:46;100628.06;;;21.50;100.00
39887;BME280;25559;44.738;20.980;2022-08-25T04:07:12;100628.97;;;21.49;100.00
39887;BME280;25559;44.738;20.980;2022-08-25T04:09:37;100634.09;;;21.52;100.00
39887;BME280;25559;44.738;20.980;2022-08-25T04:12:03;100621.84;;;21.51;100.00
39887;BME280;25559;44.738;20.980;2022-08-25T04:14:29;100630.53;;;21.53;100.00
39887;BME280;25559;44.738;20.980;2022-08-25T04:16:55;100623.53;;;21.52;100.00
39887;BME280;25559;44.738;20.980;2022-08-25T04:19:21;100632.19;;;21.54;100.00
39887;BME280;25559;44.738;20.980;2022-08-25T04:21:46;100637.38;;;21.56;100.00
39887;BME280;25559;44.738;20.980;2022-08-25T04:37:11;100641.31;;;22.49;100.00
39887;BME280;25559;44.738;20.980;2022-08-25T04:39:37;100637.66;;;22.38;100.00
39887;BME280;25559;44.738;20.980;2022-08-25T04:42:02;100637.84;;;22.34;100.00
39887;BME280;25559;44.738;20.980;2022-08-25T04:44:29;100629.09;;;22.34;100.00
39887;BME280;25559;44.738;20.980;2022-08-25T04:46:56;100625.63;;;22.33;100.00
39887;BME280;25559;44.738;20.980;2022-08-25T04:49:21;100637.94;;;22.33;100.00
39887;BME280;25559;44.738;20.980;2022-08-25T04:51:47;100630.03;;;22.33;100.00
39887;BME280;25559;44.738;20.980;2022-08-25T04:54:14;100641.56;;;22.32;100.00
39887;BME280;25559;44.738;20.980;2022-08-25T04:56:42;100638.91;;;22.32;100.00
39887;BME280;25559;44.738;20.980;2022-08-25T04:59:10;100636.19;;;22.33;100.00
39887;BME280;25559;44.738;20.980;2022-08-25T05:01:39;100629.94;;;22.34;100.00
39887;BME280;25559;44.738;20.980;2022-08-25T05:04:06;100639.47;;;22.37;100.00
39887;BME280;25559;44.738;20.980;2022-08-25T05:06:33;100635.69;;;22.41;100.00
39887;BME280;25559;44.738;20.980;2022-08-25T05:08:59;100640.97;;;22.41;100.00
39887;BME280;25559;44.738;20.980;2022-08-25T05:11:26;100639.06;;;22.43;100.00
39887;BME280;25559;44.738;20.980;2022-08-25T05:13:53;100633.69;;;22.45;100.00
39887;BME280;25559;44.738;20.980;2022-08-25T05:16:21;100636.13;;;22.48;100.00
39887;BME280;25559;44.738;20.980;2022-08-25T05:18:48;100647.44;;;22.50;100.00
39887;BME280;25559;44.738;20.980;2022-08-25T05:21:15;100648.31;;;22.50;100.00
39887;BME280;25559;44.738;20.980;2022-08-25T05:23:42;100651.56;;;22.54;100.00
39887;BME280;25559;44.738;20.980;2022-08-25T05:26:18;100650.84;;;22.52;100.00
39887;BME280;25559;44.738;20.980;2022-08-25T05:28:44;100641.13;;;22.52;100.00
39887;BME280;25559;44.738;20.980;2022-08-25T05:31:12;100654.75;;;22.59;100.00
39887;BME280;25559;44.738;20.980;2022-08-25T05:33:40;100657.31;;;22.61;100.00
39887;BME280;25559;44.738;20.980;2022-08-25T05:36:08;100652.59;;;22.66;100.00
39887;BME280;25559;44.738;20.980;2022-08-25T05:38:34;100651.56;;;22.68;100.00
39887;BME280;25559;44.738;20.980;2022-08-25T05:41:09;100650.69;;;22.68;100.00
39887;BME280;25559;44.738;20.980;2022-08-25T05:43:36;100657.47;;;22.72;100.00
39887;BME280;25559;44.738;20.980;2022-08-25T05:46:03;100661.72;;;22.75;100.00
39887;BME280;25559;44.738;20.980;2022-08-25T05:48:28;100657.38;;;22.74;100.00
39887;BME280;25559;44.738;20.980;2022-08-25T05:50:59;100655.38;;;22.77;100.00
39887;BME280;25559;44.738;20.980;2022-08-25T05:53:27;100653.78;;;22.75;100.00
39887;BME280;25559;44.738;20.980;2022-08-25T05:55:54;100662.25;;;22.80;100.00
39887;BME280;25559;44.738;20.980;2022-08-25T05:58:21;100661.31;;;22.81;100.00
39887;BME280;25559;44.738;20.980;2022-08-25T06:00:48;100669.16;;;22.82;100.00
39887;BME280;25559;44.738;20.980;2022-08-25T06:03:13;100667.34;;;22.83;100.00
39887;BME280;25559;44.738;20.980;2022-08-25T06:05:39;100668.94;;;22.85;100.00
39887;BME280;25559;44.738;20.980;2022-08-25T06:08:05;100667.88;;;22.88;100.00
39887;BME280;25559;44.738;20.980;2022-08-25T06:10:32;100664.09;;;22.92;100.00
39887;BME280;25559;44.738;20.980;2022-08-25T06:12:58;100659.63;;;22.93;100.00
39887;BME280;25559;44.738;20.980;2022-08-25T06:15:24;100648.69;;;22.99;100.00
39887;BME280;25559;44.738;20.980;2022-08-25T06:17:50;100661.50;;;23.05;100.00
39887;BME280;25559;44.738;20.980;2022-08-25T06:20:18;100668.34;;;23.07;100.00
39887;BME280;25559;44.738;20.980;2022-08-25T06:22:44;100672.72;;;23.09;100.00
39887;BME280;25559;44.738;20.980;2022-08-25T06:25:12;100672.53;;;23.12;100.00
39887;BME280;25559;44.738;20.980;2022-08-25T06:27:39;100670.72;;;23.12;100.00
39887;BME280;25559;44.738;20.980;2022-08-25T06:30:07;100664.41;;;23.15;100.00
39887;BME280;25559;44.738;20.980;2022-08-25T06:32:35;100674.56;;;23.21;100.00
39887;BME280;25559;44.738;20.980;2022-08-25T06:35:06;100664.81;;;23.21;100.00
39887;BME280;25559;44.738;20.980;2022-08-25T06:37:36;100661.03;;;23.26;100.00
39887;BME280;25559;44.738;20.980;2022-08-25T06:40:04;100661.91;;;23.26;100.00
39887;BME280;25559;44.738;20.980;2022-08-25T06:42:30;100667.72;;;23.31;100.00
39887;BME280;25559;44.738;20.980;2022-08-25T06:44:56;100669.22;;;23.35;100.00
39887;BME280;25559;44.738;20.980;2022-08-25T06:47:22;100668.91;;;23.40;100.00
39887;BME280;25559;44.738;20.980;2022-08-25T06:49:47;100667.50;;;23.47;100.00
39887;BME280;25559;44.738;20.980;2022-08-25T06:52:14;100671.66;;;23.51;100.00
39887;BME280;25559;44.738;20.980;2022-08-25T06:54:40;100674.91;;;23.55;100.00
39887;BME280;25559;44.738;20.980;2022-08-25T06:57:06;100671.22;;;23.57;100.00
39887;BME280;25559;44.738;20.980;2022-08-25T06:59:33;100673.34;;;23.65;100.00
39887;BME280;25559;44.738;20.980;2022-08-25T07:02:00;100667.31;;;23.76;100.00
39887;BME280;25559;44.738;20.980;2022-08-25T07:04:25;100670.50;;;23.81;100.00
39887;BME280;25559;44.738;20.980;2022-08-25T07:06:51;100659.72;;;23.84;100.00
39887;BME280;25559;44.738;20.980;2022-08-25T07:09:17;100654.84;;;23.91;100.00
39887;BME280;25559;44.738;20.980;2022-08-25T07:11:43;100658.03;;;23.96;100.00
39887;BME280;25559;44.738;20.980;2022-08-25T07:14:11;100650.72;;;24.00;100.00
39887;BME280;25559;44.738;20.980;2022-08-25T07:16:38;100655.56;;;24.06;100.00
39887;BME280;25559;44.738;20.980;2022-08-25T07:19:04;100663.59;;;24.17;100.00
39887;BME280;25559;44.738;20.980;2022-08-25T07:21:31;100655.13;;;24.25;99.43
39887;BME280;25559;44.738;20.980;2022-08-25T07:23:58;100654.59;;;24.33;99.04
39887;BME280;25559;44.738;20.980;2022-08-25T07:26:28;100657.28;;;24.44;98.54
39887;BME280;25559;44.738;20.980;2022-08-25T07:28:55;100653.84;;;24.55;97.77
39887;BME280;25559;44.738;20.980;2022-08-25T07:31:21;100654.06;;;24.64;96.87
39887;BME280;25559;44.738;20.980;2022-08-25T07:33:47;100647.34;;;24.72;96.55
39887;BME280;25559;44.738;20.980;2022-08-25T07:36:32;100640.31;;;24.83;95.81
39887;BME280;25559;44.738;20.980;2022-08-25T07:38:58;100636.91;;;25.06;94.21
39887;BME280;25559;44.738;20.980;2022-08-25T07:41:25;100637.16;;;25.49;91.81
39887;BME280;25559;44.738;20.980;2022-08-25T07:43:51;100639.25;;;26.02;89.56
39887;BME280;25559;44.738;20.980;2022-08-25T07:46:17;100629.88;;;26.53;86.93
39887;BME280;25559;44.738;20.980;2022-08-25T07:48:43;100633.47;;;26.96;84.20
39887;BME280;25559;44.738;20.980;2022-08-25T07:51:11;100635.75;;;27.22;82.04
39887;BME280;25559;44.738;20.980;2022-08-25T07:53:39;100633.38;;;27.40;80.75
39887;BME280;25559;44.738;20.980;2022-08-25T07:56:09;100646.03;;;27.47;80.08
39887;BME280;25559;44.738;20.980;2022-08-25T07:58:36;100645.41;;;28.17;76.34
39887;BME280;25559;44.738;20.980;2022-08-25T08:01:03;100643.00;;;29.23;73.41
39887;BME280;25559;44.738;20.980;2022-08-25T08:03:28;100629.31;;;30.39;68.36
39887;BME280;25559;44.738;20.980;2022-08-25T08:05:54;100626.84;;;31.62;62.71
39887;BME280;25559;44.738;20.980;2022-08-25T08:08:21;100631.91;;;32.91;57.67
39887;BME280;25559;44.738;20.980;2022-08-25T08:10:47;100630.66;;;34.08;55.15
39887;BME280;25559;44.738;20.980;2022-08-25T08:13:14;100632.03;;;34.35;53.20
39887;BME280;25559;44.738;20.980;2022-08-25T08:15:42;100630.88;;;35.37;49.68
39887;BME280;25559;44.738;20.980;2022-08-25T08:18:09;100631.38;;;36.37;46.04
39887;BME280;25559;44.738;20.980;2022-08-25T08:20:35;100629.28;;;37.32;43.23
39887;BME280;25559;44.738;20.980;2022-08-25T08:23:01;100622.44;;;38.26;41.07
39887;BME280;25559;44.738;20.980;2022-08-25T08:25:28;100630.66;;;39.20;38.30
39887;BME280;25559;44.738;20.980;2022-08-25T08:27:55;100625.19;;;39.98;35.67
39887;BME280;25559;44.738;20.980;2022-08-25T08:30:22;100634.41;;;40.68;33.70
39887;BME280;25559;44.738;20.980;2022-08-25T08:32:48;100640.69;;;41.37;32.93
39887;BME280;25559;44.738;20.980;2022-08-25T08:35:16;100643.53;;;41.86;31.89
39887;BME280;25559;44.738;20.980;2022-08-25T08:37:45;100646.34;;;42.52;30.33
39887;BME280;25559;44.738;20.980;2022-08-25T08:40:16;100643.59;;;42.94;28.77
39887;BME280;25559;44.738;20.980;2022-08-25T08:43:02;100635.66;;;42.81;29.28
39887;BME280;25559;44.738;20.980;2022-08-25T08:51:21;100628.50;;;43.51;27.77
39887;BME280;25559;44.738;20.980;2022-08-25T08:54:08;100625.91;;;44.14;26.45
39887;BME280;25559;44.738;20.980;2022-08-25T08:57:13;100623.97;;;44.94;26.06
39887;BME280;25559;44.738;20.980;2022-08-25T08:59:51;100622.25;;;45.66;24.96
39887;BME280;25559;44.738;20.980;2022-08-25T09:02:26;100621.44;;;46.20;23.89
39887;BME280;25559;44.738;20.980;2022-08-25T09:04:59;100618.72;;;45.71;23.82
39887;BME280;25559;44.738;20.980;2022-08-25T09:07:47;100622.81;;;45.68;23.90
39887;BME280;25559;44.738;20.980;2022-08-25T09:10:15;100616.84;;;46.26;23.42
39887;BME280;25559;44.738;20.980;2022-08-25T09:26:28;100575.91;;;43.68;26.41
39887;BME280;25559;44.738;20.980;2022-08-25T09:29:02;100595.53;;;42.46;28.11
39887;BME280;25559;44.738;20.980;2022-08-25T09:31:34;100586.69;;;41.41;29.79
39887;BME280;25559;44.738;20.980;2022-08-25T09:34:06;100582.44;;;41.08;30.59
39887;BME280;25559;44.738;20.980;2022-08-25T09:36:32;100584.75;;;40.29;31.93
39887;BME280;25559;44.738;20.980;2022-08-25T09:38:59;100580.53;;;40.65;31.73
39887;BME280;25559;44.738;20.980;2022-08-25T09:41:47;100576.19;;;40.57;31.48
39887;BME280;25559;44.738;20.980;2022-08-25T09:44:25;100568.00;;;41.63;30.55
39887;BME280;25559;44.738;20.980;2022-08-25T09:47:28;100570.66;;;41.14;30.80
39887;BME280;25559;44.738;20.980;2022-08-25T09:49:58;100565.53;;;40.30;32.02
39887;BME280;25559;44.738;20.980;2022-08-25T09:54:59;100560.97;;;39.34;34.12
39887;BME280;25559;44.738;20.980;2022-08-25T10:00:12;100548.38;;;39.98;32.69
39887;BME280;25559;44.738;20.980;2022-08-25T10:02:38;100560.16;;;39.33;33.90
39887;BME280;25559;44.738;20.980;2022-08-25T10:05:25;100549.38;;;38.60;35.27
39887;BME280;25559;44.738;20.980;2022-08-25T10:07:57;100546.38;;;37.94;36.98
39887;BME280;25559;44.738;20.980;2022-08-25T10:10:32;100545.16;;;37.42;37.71
39887;BME280;25559;44.738;20.980;2022-08-25T10:12:58;100543.25;;;37.07;39.01
39887;BME280;25559;44.738;20.980;2022-08-25T10:15:34;100541.34;;;36.73;39.79
39887;BME280;25559;44.738;20.980;2022-08-25T10:21:06;100526.34;;;36.20;41.24
39887;BME280;25559;44.738;20.980;2022-08-25T10:23:36;100523.31;;;36.08;41.93
39887;BME280;25559;44.738;20.980;2022-08-25T10:26:27;100510.38;;;35.97;42.42
39887;BME280;25559;44.738;20.980;2022-08-25T10:31:54;100515.44;;;35.70;42.96
39887;BME280;25559;44.738;20.980;2022-08-25T10:34:35;100512.13;;;35.53;43.34
39887;BME280;25559;44.738;20.980;2022-08-25T10:39:49;100492.25;;;35.25;43.60
39887;BME280;25559;44.738;20.980;2022-08-25T10:45:16;100486.50;;;34.98;44.04
39887;BME280;25559;44.738;20.980;2022-08-25T11:05:00;100476.09;;;34.42;45.46
39887;BME280;25559;44.738;20.980;2022-08-25T11:07:32;100476.84;;;34.35;45.88
39887;BME280;25559;44.738;20.980;2022-08-25T11:10:14;100469.31;;;34.31;46.00
39887;BME280;25559;44.738;20.980;2022-08-25T11:12:53;100474.56;;;34.24;46.72
39887;BME280;25559;44.738;20.980;2022-08-25T11:17:58;100476.34;;;34.09;46.28
39887;BME280;25559;44.738;20.980;2022-08-25T11:21:32;100473.72;;;34.00;46.80
39887;BME280;25559;44.738;20.980;2022-08-25T11:23:42;100468.97;;;33.88;47.89
39887;BME280;25559;44.738;20.980;2022-08-25T11:26:14;100457.94;;;33.74;48.78
39887;BME280;25559;44.738;20.980;2022-08-25T11:29:08;100452.13;;;33.62;49.55
39887;BME280;25559;44.738;20.980;2022-08-25T11:31:39;100453.00;;;33.55;49.88
39887;BME280;25559;44.738;20.980;2022-08-25T11:34:13;100445.84;;;33.39;51.18
39887;BME280;25559;44.738;20.980;2022-08-25T11:36:43;100446.72;;;33.31;51.98
39887;BME280;25559;44.738;20.980;2022-08-25T11:42:12;100443.09;;;33.16;51.55
39887;BME280;25559;44.738;20.980;2022-08-25T11:44:45;100430.53;;;33.08;51.88
39887;BME280;25559;44.738;20.980;2022-08-25T11:49:52;100434.09;;;33.00;51.55
39887;BME280;25559;44.738;20.980;2022-08-25T11:55:17;100428.59;;;32.85;50.89
39887;BME280;25559;44.738;20.980;2022-08-25T11:57:45;100425.59;;;32.80;51.60
39887;BME280;25559;44.738;20.980;2022-08-25T12:00:43;100417.56;;;32.72;51.75
39887;BME280;25559;44.738;20.980;2022-08-25T12:08:51;100412.22;;;32.55;52.93
39887;BME280;25559;44.738;20.980;2022-08-25T12:11:54;100420.94;;;32.49;53.78
39887;BME280;25559;44.738;20.980;2022-08-25T12:21:49;100400.31;;;32.58;53.15
39887;BME280;25559;44.738;20.980;2022-08-25T12:24:20;100405.84;;;32.65;52.20
39887;BME280;25559;44.738;20.980;2022-08-25T12:29:39;100402.16;;;32.66;51.93
39887;BME280;25559;44.738;20.980;2022-08-25T12:40:53;100400.34;;;32.33;51.40
39887;BME280;25559;44.738;20.980;2022-08-25T12:43:34;100393.00;;;32.27;51.05
39887;BME280;25559;44.738;20.980;2022-08-25T12:51:53;100393.31;;;32.32;51.25
39887;BME280;25559;44.738;20.980;2022-08-25T12:56:56;100393.16;;;32.26;51.68
39887;BME280;25559;44.738;20.980;2022-08-25T12:59:36;100390.66;;;32.24;51.44
39887;BME280;25559;44.738;20.980;2022-08-25T13:11:14;100383.59;;;32.06;51.96
39887;BME280;25559;44.738;20.980;2022-08-25T13:13:51;100385.09;;;32.09;51.62
39887;BME280;25559;44.738;20.980;2022-08-25T13:16:24;100371.22;;;32.05;52.08
39887;BME280;25559;44.738;20.980;2022-08-25T13:18:53;100374.22;;;32.02;51.55
39887;BME280;25559;44.738;20.980;2022-08-25T13:21:32;100366.34;;;32.01;51.37
39887;BME280;25559;44.738;20.980;2022-08-25T13:24:00;100365.00;;;31.97;51.94
39887;BME280;25559;44.738;20.980;2022-08-25T13:26:37;100362.84;;;31.92;52.02
39887;BME280;25559;44.738;20.980;2022-08-25T13:31:33;100356.63;;;31.83;51.80
39887;BME280;25559;44.738;20.980;2022-08-25T13:34:02;100350.94;;;31.78;51.57
39887;BME280;25559;44.738;20.980;2022-08-25T13:36:41;100353.97;;;31.75;51.80
39887;BME280;25559;44.738;20.980;2022-08-25T13:39:26;100340.22;;;31.70;51.81
39887;BME280;25559;44.738;20.980;2022-08-25T13:41:55;100347.75;;;31.66;52.12
39887;BME280;25559;44.738;20.980;2022-08-25T13:44:24;100347.28;;;31.63;52.20
39887;BME280;25559;44.738;20.980;2022-08-25T13:47:16;100349.09;;;31.62;53.09
39887;BME280;25559;44.738;20.980;2022-08-25T13:53:22;100333.00;;;31.54;52.42
39887;BME280;25559;44.738;20.980;2022-08-25T13:55:50;100335.16;;;31.50;52.02
39887;BME280;25559;44.738;20.980;2022-08-25T13:58:24;100335.81;;;31.44;52.26
39887;BME280;25559;44.738;20.980;2022-08-25T14:03:47;100336.47;;;31.38;52.50
39887;BME280;25559;44.738;20.980;2022-08-25T14:08:42;100310.53;;;31.30;53.80
39887;BME280;25559;44.738;20.980;2022-08-25T14:16:52;100321.06;;;31.32;53.04
39887;BME280;25559;44.738;20.980;2022-08-25T14:19:21;100317.56;;;31.31;52.45
39887;BME280;25559;44.738;20.980;2022-08-25T14:21:48;100324.78;;;31.31;52.33
39887;BME280;25559;44.738;20.980;2022-08-25T14:24:16;100319.72;;;31.28;51.45
39887;BME280;25559;44.738;20.980;2022-08-25T14:26:43;100308.34;;;31.26;51.45
39887;BME280;25559;44.738;20.980;2022-08-25T14:29:11;100313.88;;;31.24;51.38
39887;BME280;25559;44.738;20.980;2022-08-25T14:31:39;100315.88;;;31.22;51.63
39887;BME280;25559;44.738;20.980;2022-08-25T14:34:22;100310.84;;;31.19;52.09
39887;BME280;25559;44.738;20.980;2022-08-25T14:36:50;100316.03;;;31.21;52.42
39887;BME280;25559;44.738;20.980;2022-08-25T14:39:17;100306.16;;;31.13;52.26
39887;BME280;25559;44.738;20.980;2022-08-25T14:41:43;100305.13;;;31.14;52.74
39887;BME280;25559;44.738;20.980;2022-08-25T14:44:12;100298.63;;;31.08;52.74
39887;BME280;25559;44.738;20.980;2022-08-25T14:46:52;100294.94;;;31.09;53.34
39887;BME280;25559;44.738;20.980;2022-08-25T14:49:28;100299.78;;;31.06;53.63
39887;BME280;25559;44.738;20.980;2022-08-25T14:52:15;100302.78;;;31.03;53.92
39887;BME280;25559;44.738;20.980;2022-08-25T14:54:43;100295.91;;;31.00;53.93
39887;BME280;25559;44.738;20.980;2022-08-25T14:57:09;100306.44;;;31.02;53.97
39887;BME280;25559;44.738;20.980;2022-08-25T14:59:35;100304.63;;;31.02;53.79
39887;BME280;25559;44.738;20.980;2022-08-25T15:02:01;100304.47;;;31.04;53.74
39887;BME280;25559;44.738;20.980;2022-08-25T15:04:27;100306.97;;;31.05;53.87
39887;BME280;25559;44.738;20.980;2022-08-25T15:06:56;100304.16;;;31.07;53.86
39887;BME280;25559;44.738;20.980;2022-08-25T15:09:23;100306.97;;;31.05;53.83